sensor_id;sensor_type;location;lat;lon;timestamp;P1;durP1;ratioP1;P2;durP2;ratioP2
75520;SDS011;64102;48.628;9.002;2023-05-07T00:01:37;5.35;;;0.40;;
75520;SDS011;64102;48.628;9.002;2023-05-07T00:04:02;5.43;;;0.50;;
75520;SDS011;64102;48.628;9.002;2023-05-07T00:06:28;4.82;;;0.40;;
75520;SDS011;64102;48.628;9.002;2023-05-07T00:08:54;7.90;;;0.50;;
75520;SDS011;64102;48.628;9.002;2023-05-07T00:11:19;5.55;;;0.50;;
75520;SDS011;64102;48.628;9.002;2023-05-07T00:13:45;4.88;;;0.47;;
75520;SDS011;64102;48.628;9.002;2023-05-07T00:16:10;4.90;;;0.40;;
75520;SDS011;64102;48.628;9.002;2023-05-07T00:18:36;5.17;;;0.50;;
75520;SDS011;64102;48.628;9.002;2023-05-07T00:21:01;5.23;;;0.40;;
75520;SDS011;64102;48.628;9.002;2023-05-07T00:23:26;6.10;;;0.50;;
75520;SDS011;64102;48.628;9.002;2023-05-07T00:25:52;5.20;;;0.50;;
75520;SDS011;64102;48.628;9.002;2023-05-07T00:28:17;5.17;;;0.57;;
75520;SDS011;64102;48.628;9.002;2023-05-07T00:30:42;4.50;;;0.47;;
75520;SDS011;64102;48.628;9.002;2023-05-07T00:33:08;5.88;;;0.57;;
75520;SDS011;64102;48.628;9.002;2023-05-07T00:35:33;6.23;;;0.80;;
75520;SDS011;64102;48.628;9.002;2023-05-07T00:37:58;5.85;;;0.60;;
75520;SDS011;64102;48.628;9.002;2023-05-07T00:40:24;6.60;;;0.50;;
75520;SDS011;64102;48.628;9.002;2023-05-07T00:42:49;5.23;;;0.50;;
75520;SDS011;64102;48.628;9.002;2023-05-07T00:45:15;6.60;;;0.70;;
75520;SDS011;64102;48.628;9.002;2023-05-07T00:47:42;6.10;;;0.70;;
75520;SDS011;64102;48.628;9.002;2023-05-07T00:50:08;6.88;;;0.70;;
75520;SDS011;64102;48.628;9.002;2023-05-07T00:52:35;8.25;;;0.80;;
75520;SDS011;64102;48.628;9.002;2023-05-07T00:55:04;7.65;;;0.68;;
75520;SDS011;64102;48.628;9.002;2023-05-07T00:57:32;5.20;;;0.50;;
75520;SDS011;64102;48.628;9.002;2023-05-07T01:00:01;4.95;;;0.40;;
75520;SDS011;64102;48.628;9.002;2023-05-07T01:02:29;5.32;;;0.30;;
75520;SDS011;64102;48.628;9.002;2023-05-07T01:04:54;4.53;;;0.40;;
75520;SDS011;64102;48.628;9.002;2023-05-07T01:07:20;7.57;;;0.50;;
75520;SDS011;64102;48.628;9.002;2023-05-07T01:09:46;4.70;;;0.40;;
75520;SDS011;64102;48.628;9.002;2023-05-07T01:12:12;6.72;;;0.47;;
75520;SDS011;64102;48.628;9.002;2023-05-07T01:14:38;5.97;;;0.60;;
75520;SDS011;64102;48.628;9.002;2023-05-07T01:17:03;6.57;;;0.90;;
75520;SDS011;64102;48.628;9.002;2023-05-07T01:19:29;7.20;;;0.70;;
75520;SDS011;64102;48.628;9.002;2023-05-07T01:21:55;6.07;;;0.65;;
75520;SDS011;64102;48.628;9.002;2023-05-07T01:24:33;7.40;;;1.25;;
75520;SDS011;64102;48.628;9.002;2023-05-07T01:27:01;6.13;;;0.60;;
75520;SDS011;64102;48.628;9.002;2023-05-07T01:29:27;6.25;;;0.80;;
75520;SDS011;64102;48.628;9.002;2023-05-07T01:31:53;6.07;;;0.50;;
75520;SDS011;64102;48.628;9.002;2023-05-07T01:34:21;5.05;;;0.50;;
75520;SDS011;64102;48.628;9.002;2023-05-07T01:36:47;6.50;;;0.50;;
75520;SDS011;64102;48.628;9.002;2023-05-07T01:39:13;6.28;;;0.60;;
75520;SDS011;64102;48.628;9.002;2023-05-07T01:41:40;5.32;;;0.47;;
75520;SDS011;64102;48.628;9.002;2023-05-07T01:44:06;4.15;;;0.38;;
75520;SDS011;64102;48.628;9.002;2023-05-07T01:46:33;7.05;;;0.70;;
75520;SDS011;64102;48.628;9.002;2023-05-07T01:48:59;6.22;;;0.50;;
75520;SDS011;64102;48.628;9.002;2023-05-07T01:51:24;5.88;;;0.60;;
75520;SDS011;64102;48.628;9.002;2023-05-07T01:53:51;6.13;;;0.77;;
75520;SDS011;64102;48.628;9.002;2023-05-07T01:56:18;6.18;;;0.52;;
75520;SDS011;64102;48.628;9.002;2023-05-07T01:58:45;7.35;;;0.80;;
75520;SDS011;64102;48.628;9.002;2023-05-07T02:01:13;4.53;;;0.50;;
75520;SDS011;64102;48.628;9.002;2023-05-07T02:03:39;6.68;;;0.70;;
75520;SDS011;64102;48.628;9.002;2023-05-07T02:06:05;5.22;;;0.50;;
75520;SDS011;64102;48.628;9.002;2023-05-07T02:08:30;5.80;;;0.50;;
75520;SDS011;64102;48.628;9.002;2023-05-07T02:10:56;5.13;;;0.52;;
75520;SDS011;64102;48.628;9.002;2023-05-07T02:13:21;5.50;;;0.65;;
75520;SDS011;64102;48.628;9.002;2023-05-07T02:15:47;5.78;;;0.50;;
75520;SDS011;64102;48.628;9.002;2023-05-07T02:18:15;6.88;;;0.80;;
75520;SDS011;64102;48.628;9.002;2023-05-07T02:20:41;6.80;;;0.52;;
75520;SDS011;64102;48.628;9.002;2023-05-07T02:23:06;5.40;;;0.60;;
75520;SDS011;64102;48.628;9.002;2023-05-07T02:25:32;5.38;;;0.50;;
75520;SDS011;64102;48.628;9.002;2023-05-07T02:27:57;4.78;;;0.57;;
75520;SDS011;64102;48.628;9.002;2023-05-07T02:30:23;4.75;;;0.50;;
75520;SDS011;64102;48.628;9.002;2023-05-07T02:32:50;5.63;;;0.70;;
75520;SDS011;64102;48.628;9.002;2023-05-07T02:35:15;5.95;;;0.47;;
75520;SDS011;64102;48.628;9.002;2023-05-07T02:37:40;7.40;;;1.00;;
75520;SDS011;64102;48.628;9.002;2023-05-07T02:40:06;8.27;;;1.40;;
75520;SDS011;64102;48.628;9.002;2023-05-07T02:42:32;8.52;;;1.75;;
75520;SDS011;64102;48.628;9.002;2023-05-07T02:44:57;9.73;;;1.20;;
75520;SDS011;64102;48.628;9.002;2023-05-07T02:47:22;7.00;;;0.90;;
75520;SDS011;64102;48.628;9.002;2023-05-07T02:49:48;7.50;;;1.30;;
75520;SDS011;64102;48.628;9.002;2023-05-07T02:52:13;6.90;;;0.70;;
75520;SDS011;64102;48.628;9.002;2023-05-07T02:54:38;7.15;;;0.90;;
75520;SDS011;64102;48.628;9.002;2023-05-07T02:57:04;5.47;;;0.63;;
75520;SDS011;64102;48.628;9.002;2023-05-07T02:59:29;5.22;;;0.50;;
75520;SDS011;64102;48.628;9.002;2023-05-07T03:01:55;4.97;;;0.52;;
75520;SDS011;64102;48.628;9.002;2023-05-07T03:04:20;5.55;;;0.68;;
75520;SDS011;64102;48.628;9.002;2023-05-07T03:06:46;8.00;;;0.70;;
75520;SDS011;64102;48.628;9.002;2023-05-07T03:09:11;5.32;;;0.55;;
75520;SDS011;64102;48.628;9.002;2023-05-07T03:11:37;5.45;;;0.63;;
75520;SDS011;64102;48.628;9.002;2023-05-07T03:14:02;6.32;;;0.65;;
75520;SDS011;64102;48.628;9.002;2023-05-07T03:16:27;6.93;;;1.05;;
75520;SDS011;64102;48.628;9.002;2023-05-07T03:18:53;6.97;;;0.80;;
75520;SDS011;64102;48.628;9.002;2023-05-07T03:21:18;6.63;;;0.88;;
75520;SDS011;64102;48.628;9.002;2023-05-07T03:23:44;6.63;;;0.75;;
75520;SDS011;64102;48.628;9.002;2023-05-07T03:26:09;6.68;;;0.73;;
75520;SDS011;64102;48.628;9.002;2023-05-07T03:28:36;6.25;;;0.80;;
75520;SDS011;64102;48.628;9.002;2023-05-07T03:31:02;6.85;;;0.60;;
75520;SDS011;64102;48.628;9.002;2023-05-07T03:33:27;7.15;;;0.73;;
75520;SDS011;64102;48.628;9.002;2023-05-07T03:35:52;8.00;;;0.90;;
75520;SDS011;64102;48.628;9.002;2023-05-07T03:38:18;7.00;;;1.17;;
75520;SDS011;64102;48.628;9.002;2023-05-07T03:40:43;6.87;;;1.07;;
75520;SDS011;64102;48.628;9.002;2023-05-07T03:43:09;8.23;;;1.03;;
75520;SDS011;64102;48.628;9.002;2023-05-07T03:45:34;6.78;;;0.73;;
75520;SDS011;64102;48.628;9.002;2023-05-07T03:48:00;6.50;;;0.70;;
75520;SDS011;64102;48.628;9.002;2023-05-07T03:50:25;7.18;;;0.88;;
75520;SDS011;64102;48.628;9.002;2023-05-07T03:52:51;8.23;;;0.82;;
75520;SDS011;64102;48.628;9.002;2023-05-07T03:55:16;6.30;;;0.90;;
75520;SDS011;64102;48.628;9.002;2023-05-07T03:57:42;8.07;;;0.88;;
75520;SDS011;64102;48.628;9.002;2023-05-07T04:00:07;6.90;;;0.97;;
75520;SDS011;64102;48.628;9.002;2023-05-07T04:02:33;6.85;;;1.20;;
75520;SDS011;64102;48.628;9.002;2023-05-07T04:04:58;7.85;;;1.00;;
75520;SDS011;64102;48.628;9.002;2023-05-07T04:07:24;8.10;;;0.90;;
75520;SDS011;64102;48.628;9.002;2023-05-07T04:09:49;6.53;;;0.90;;
75520;SDS011;64102;48.628;9.002;2023-05-07T04:12:14;6.85;;;0.90;;
75520;SDS011;64102;48.628;9.002;2023-05-07T04:14:40;6.47;;;0.77;;
75520;SDS011;64102;48.628;9.002;2023-05-07T04:17:05;9.93;;;2.03;;
75520;SDS011;64102;48.628;9.002;2023-05-07T04:19:33;7.07;;;0.90;;
75520;SDS011;64102;48.628;9.002;2023-05-07T04:21:58;7.85;;;0.90;;
75520;SDS011;64102;48.628;9.002;2023-05-07T04:24:23;6.23;;;0.97;;
75520;SDS011;64102;48.628;9.002;2023-05-07T04:26:49;7.10;;;1.37;;
75520;SDS011;64102;48.628;9.002;2023-05-07T04:29:16;6.32;;;0.75;;
75520;SDS011;64102;48.628;9.002;2023-05-07T04:31:41;7.93;;;1.05;;
75520;SDS011;64102;48.628;9.002;2023-05-07T04:34:09;9.07;;;1.10;;
75520;SDS011;64102;48.628;9.002;2023-05-07T04:36:35;7.93;;;1.17;;
75520;SDS011;64102;48.628;9.002;2023-05-07T04:39:03;7.43;;;0.95;;
75520;SDS011;64102;48.628;9.002;2023-05-07T04:41:29;6.82;;;0.85;;
75520;SDS011;64102;48.628;9.002;2023-05-07T04:43:54;6.73;;;1.00;;
75520;SDS011;64102;48.628;9.002;2023-05-07T04:46:20;6.88;;;0.63;;
75520;SDS011;64102;48.628;9.002;2023-05-07T04:48:45;6.37;;;0.77;;
75520;SDS011;64102;48.628;9.002;2023-05-07T04:51:11;9.70;;;2.30;;
75520;SDS011;64102;48.628;9.002;2023-05-07T04:53:36;8.50;;;1.38;;
75520;SDS011;64102;48.628;9.002;2023-05-07T04:56:02;7.47;;;1.10;;
75520;SDS011;64102;48.628;9.002;2023-05-07T04:58:28;6.55;;;1.00;;
75520;SDS011;64102;48.628;9.002;2023-05-07T05:00:56;5.05;;;0.50;;
75520;SDS011;64102;48.628;9.002;2023-05-07T05:03:22;7.53;;;0.60;;
75520;SDS011;64102;48.628;9.002;2023-05-07T05:05:48;6.13;;;0.50;;
75520;SDS011;64102;48.628;9.002;2023-05-07T05:08:14;6.53;;;0.57;;
75520;SDS011;64102;48.628;9.002;2023-05-07T05:10:39;6.33;;;0.60;;
75520;SDS011;64102;48.628;9.002;2023-05-07T05:13:06;5.90;;;0.77;;
75520;SDS011;64102;48.628;9.002;2023-05-07T05:15:33;5.40;;;0.60;;
75520;SDS011;64102;48.628;9.002;2023-05-07T05:17:58;10.82;;;0.90;;
75520;SDS011;64102;48.628;9.002;2023-05-07T05:20:23;7.93;;;0.77;;
75520;SDS011;64102;48.628;9.002;2023-05-07T05:22:49;5.40;;;0.40;;
75520;SDS011;64102;48.628;9.002;2023-05-07T05:25:14;5.97;;;0.60;;
75520;SDS011;64102;48.628;9.002;2023-05-07T05:27:40;4.97;;;0.50;;
75520;SDS011;64102;48.628;9.002;2023-05-07T05:30:05;7.25;;;0.50;;
75520;SDS011;64102;48.628;9.002;2023-05-07T05:32:31;4.57;;;0.40;;
75520;SDS011;64102;48.628;9.002;2023-05-07T05:34:56;4.47;;;0.43;;
75520;SDS011;64102;48.628;9.002;2023-05-07T05:37:22;5.88;;;0.75;;
75520;SDS011;64102;48.628;9.002;2023-05-07T05:39:47;5.88;;;0.73;;
75520;SDS011;64102;48.628;9.002;2023-05-07T05:42:13;5.80;;;0.97;;
75520;SDS011;64102;48.628;9.002;2023-05-07T05:44:38;7.63;;;1.10;;
75520;SDS011;64102;48.628;9.002;2023-05-07T05:47:03;8.00;;;1.33;;
75520;SDS011;64102;48.628;9.002;2023-05-07T05:49:29;5.82;;;0.75;;
75520;SDS011;64102;48.628;9.002;2023-05-07T05:51:54;6.67;;;1.10;;
75520;SDS011;64102;48.628;9.002;2023-05-07T05:54:20;6.65;;;1.10;;
75520;SDS011;64102;48.628;9.002;2023-05-07T05:56:46;6.38;;;1.15;;
75520;SDS011;64102;48.628;9.002;2023-05-07T05:59:11;7.22;;;1.30;;
75520;SDS011;64102;48.628;9.002;2023-05-07T06:01:37;6.93;;;1.00;;
75520;SDS011;64102;48.628;9.002;2023-05-07T06:04:03;7.10;;;1.48;;
75520;SDS011;64102;48.628;9.002;2023-05-07T06:06:29;8.00;;;1.30;;
75520;SDS011;64102;48.628;9.002;2023-05-07T06:08:54;5.50;;;0.80;;
75520;SDS011;64102;48.628;9.002;2023-05-07T06:11:19;6.60;;;1.05;;
75520;SDS011;64102;48.628;9.002;2023-05-07T06:13:45;5.95;;;1.02;;
75520;SDS011;64102;48.628;9.002;2023-05-07T06:16:10;7.30;;;0.90;;
75520;SDS011;64102;48.628;9.002;2023-05-07T06:18:36;6.78;;;1.10;;
75520;SDS011;64102;48.628;9.002;2023-05-07T06:21:01;7.45;;;1.25;;
75520;SDS011;64102;48.628;9.002;2023-05-07T06:23:27;6.13;;;1.38;;
75520;SDS011;64102;48.628;9.002;2023-05-07T06:25:52;6.10;;;1.33;;
75520;SDS011;64102;48.628;9.002;2023-05-07T06:28:17;5.37;;;1.00;;
75520;SDS011;64102;48.628;9.002;2023-05-07T06:30:44;5.83;;;1.43;;
75520;SDS011;64102;48.628;9.002;2023-05-07T06:33:10;6.07;;;1.77;;
75520;SDS011;64102;48.628;9.002;2023-05-07T06:35:35;6.07;;;1.35;;
75520;SDS011;64102;48.628;9.002;2023-05-07T06:38:00;6.50;;;1.10;;
75520;SDS011;64102;48.628;9.002;2023-05-07T06:40:26;6.80;;;1.33;;
75520;SDS011;64102;48.628;9.002;2023-05-07T06:42:51;6.30;;;1.50;;
75520;SDS011;64102;48.628;9.002;2023-05-07T06:45:17;6.35;;;1.17;;
75520;SDS011;64102;48.628;9.002;2023-05-07T06:47:42;5.88;;;1.20;;
75520;SDS011;64102;48.628;9.002;2023-05-07T06:50:08;6.22;;;1.17;;
75520;SDS011;64102;48.628;9.002;2023-05-07T06:52:34;6.72;;;1.42;;
75520;SDS011;64102;48.628;9.002;2023-05-07T06:55:00;6.53;;;1.17;;
75520;SDS011;64102;48.628;9.002;2023-05-07T06:57:26;6.65;;;1.33;;
75520;SDS011;64102;48.628;9.002;2023-05-07T06:59:51;6.22;;;0.90;;
75520;SDS011;64102;48.628;9.002;2023-05-07T07:02:16;6.33;;;1.00;;
75520;SDS011;64102;48.628;9.002;2023-05-07T07:04:42;7.03;;;1.50;;
75520;SDS011;64102;48.628;9.002;2023-05-07T07:07:07;5.63;;;1.20;;
75520;SDS011;64102;48.628;9.002;2023-05-07T07:09:32;6.60;;;1.27;;
75520;SDS011;64102;48.628;9.002;2023-05-07T07:11:58;7.97;;;1.42;;
75520;SDS011;64102;48.628;9.002;2023-05-07T07:14:23;7.43;;;1.10;;
75520;SDS011;64102;48.628;9.002;2023-05-07T07:16:49;6.47;;;1.30;;
75520;SDS011;64102;48.628;9.002;2023-05-07T07:19:14;4.75;;;1.23;;
75520;SDS011;64102;48.628;9.002;2023-05-07T07:21:42;5.85;;;1.42;;
75520;SDS011;64102;48.628;9.002;2023-05-07T07:24:08;4.73;;;1.10;;
75520;SDS011;64102;48.628;9.002;2023-05-07T07:26:33;6.40;;;0.70;;
75520;SDS011;64102;48.628;9.002;2023-05-07T07:28:59;5.32;;;0.93;;
75520;SDS011;64102;48.628;9.002;2023-05-07T07:31:24;4.55;;;0.80;;
75520;SDS011;64102;48.628;9.002;2023-05-07T07:33:50;5.15;;;1.00;;
75520;SDS011;64102;48.628;9.002;2023-05-07T07:36:15;5.97;;;1.60;;
75520;SDS011;64102;48.628;9.002;2023-05-07T07:38:41;4.80;;;0.90;;
75520;SDS011;64102;48.628;9.002;2023-05-07T07:41:07;5.40;;;1.25;;
75520;SDS011;64102;48.628;9.002;2023-05-07T07:43:33;6.90;;;1.88;;
75520;SDS011;64102;48.628;9.002;2023-05-07T07:45:59;5.50;;;1.20;;
75520;SDS011;64102;48.628;9.002;2023-05-07T07:48:24;5.95;;;1.40;;
75520;SDS011;64102;48.628;9.002;2023-05-07T07:50:49;5.90;;;1.77;;
75520;SDS011;64102;48.628;9.002;2023-05-07T07:53:16;5.55;;;1.20;;
75520;SDS011;64102;48.628;9.002;2023-05-07T07:55:42;5.78;;;1.40;;
75520;SDS011;64102;48.628;9.002;2023-05-07T07:58:07;5.30;;;1.88;;
75520;SDS011;64102;48.628;9.002;2023-05-07T08:00:32;6.00;;;1.63;;
75520;SDS011;64102;48.628;9.002;2023-05-07T08:02:58;5.33;;;1.43;;
75520;SDS011;64102;48.628;9.002;2023-05-07T08:05:24;9.17;;;1.83;;
75520;SDS011;64102;48.628;9.002;2023-05-07T08:07:50;7.13;;;2.65;;
75520;SDS011;64102;48.628;9.002;2023-05-07T08:10:17;4.82;;;1.58;;
75520;SDS011;64102;48.628;9.002;2023-05-07T08:12:46;5.32;;;1.23;;
75520;SDS011;64102;48.628;9.002;2023-05-07T08:15:12;6.32;;;1.23;;
75520;SDS011;64102;48.628;9.002;2023-05-07T08:17:38;5.95;;;1.45;;
75520;SDS011;64102;48.628;9.002;2023-05-07T08:20:03;5.77;;;1.43;;
75520;SDS011;64102;48.628;9.002;2023-05-07T08:22:29;4.57;;;0.88;;
75520;SDS011;64102;48.628;9.002;2023-05-07T08:24:55;4.60;;;0.70;;
75520;SDS011;64102;48.628;9.002;2023-05-07T08:27:20;5.03;;;1.92;;
75520;SDS011;64102;48.628;9.002;2023-05-07T08:29:45;5.73;;;1.20;;
75520;SDS011;64102;48.628;9.002;2023-05-07T08:32:12;6.00;;;1.60;;
75520;SDS011;64102;48.628;9.002;2023-05-07T08:34:37;4.83;;;1.33;;
75520;SDS011;64102;48.628;9.002;2023-05-07T08:37:03;4.95;;;1.23;;
75520;SDS011;64102;48.628;9.002;2023-05-07T08:39:29;5.18;;;1.52;;
75520;SDS011;64102;48.628;9.002;2023-05-07T08:41:55;5.17;;;1.70;;
75520;SDS011;64102;48.628;9.002;2023-05-07T08:44:23;4.30;;;1.63;;
75520;SDS011;64102;48.628;9.002;2023-05-07T08:46:53;5.97;;;2.10;;
75520;SDS011;64102;48.628;9.002;2023-05-07T08:49:20;5.72;;;3.08;;
75520;SDS011;64102;48.628;9.002;2023-05-07T08:51:46;6.45;;;2.03;;
75520;SDS011;64102;48.628;9.002;2023-05-07T08:54:11;7.35;;;2.63;;
75520;SDS011;64102;48.628;9.002;2023-05-07T08:56:41;5.32;;;2.10;;
75520;SDS011;64102;48.628;9.002;2023-05-07T08:59:06;5.25;;;1.55;;
75520;SDS011;64102;48.628;9.002;2023-05-07T09:01:32;4.68;;;1.27;;
75520;SDS011;64102;48.628;9.002;2023-05-07T09:03:57;5.43;;;1.48;;
75520;SDS011;64102;48.628;9.002;2023-05-07T09:06:23;7.03;;;1.83;;
75520;SDS011;64102;48.628;9.002;2023-05-07T09:08:49;6.65;;;2.28;;
75520;SDS011;64102;48.628;9.002;2023-05-07T09:11:16;5.05;;;2.25;;
75520;SDS011;64102;48.628;9.002;2023-05-07T09:13:41;4.78;;;1.95;;
75520;SDS011;64102;48.628;9.002;2023-05-07T09:16:11;6.05;;;2.50;;
75520;SDS011;64102;48.628;9.002;2023-05-07T09:18:40;7.53;;;3.35;;
75520;SDS011;64102;48.628;9.002;2023-05-07T09:21:09;5.82;;;3.25;;
75520;SDS011;64102;48.628;9.002;2023-05-07T09:36:29;6.05;;;2.67;;
75520;SDS011;64102;48.628;9.002;2023-05-07T09:38:58;5.55;;;2.80;;
75520;SDS011;64102;48.628;9.002;2023-05-07T09:41:24;6.85;;;4.55;;
75520;SDS011;64102;48.628;9.002;2023-05-07T09:43:54;7.57;;;3.83;;
75520;SDS011;64102;48.628;9.002;2023-05-07T09:46:20;6.82;;;4.47;;
75520;SDS011;64102;48.628;9.002;2023-05-07T09:48:55;6.32;;;4.10;;
75520;SDS011;64102;48.628;9.002;2023-05-07T09:51:29;6.68;;;3.13;;
75520;SDS011;64102;48.628;9.002;2023-05-07T09:54:16;5.72;;;2.83;;
75520;SDS011;64102;48.628;9.002;2023-05-07T09:56:42;6.30;;;3.13;;
75520;SDS011;64102;48.628;9.002;2023-05-07T09:59:12;7.47;;;5.63;;
75520;SDS011;64102;48.628;9.002;2023-05-07T10:01:40;6.45;;;5.35;;
75520;SDS011;64102;48.628;9.002;2023-05-07T10:04:07;7.72;;;6.82;;
75520;SDS011;64102;48.628;9.002;2023-05-07T10:06:34;7.80;;;4.47;;
75520;SDS011;64102;48.628;9.002;2023-05-07T10:09:00;6.22;;;3.20;;
75520;SDS011;64102;48.628;9.002;2023-05-07T10:11:26;6.72;;;3.05;;
75520;SDS011;64102;48.628;9.002;2023-05-07T10:13:53;6.95;;;4.20;;
75520;SDS011;64102;48.628;9.002;2023-05-07T10:16:18;7.15;;;4.90;;
75520;SDS011;64102;48.628;9.002;2023-05-07T10:18:46;7.15;;;2.22;;
75520;SDS011;64102;48.628;9.002;2023-05-07T10:21:17;6.70;;;1.95;;
75520;SDS011;64102;48.628;9.002;2023-05-07T10:23:50;6.05;;;2.65;;
75520;SDS011;64102;48.628;9.002;2023-05-07T10:26:35;5.22;;;1.35;;
75520;SDS011;64102;48.628;9.002;2023-05-07T10:29:23;5.68;;;1.45;;
75520;SDS011;64102;48.628;9.002;2023-05-07T10:35:06;5.60;;;2.25;;
75520;SDS011;64102;48.628;9.002;2023-05-07T10:37:36;6.68;;;3.22;;
75520;SDS011;64102;48.628;9.002;2023-05-07T10:40:02;5.28;;;1.63;;
75520;SDS011;64102;48.628;9.002;2023-05-07T10:42:27;6.35;;;1.30;;
75520;SDS011;64102;48.628;9.002;2023-05-07T10:44:53;4.75;;;1.02;;
75520;SDS011;64102;48.628;9.002;2023-05-07T10:47:18;4.53;;;0.80;;
75520;SDS011;64102;48.628;9.002;2023-05-07T10:52:22;5.30;;;1.50;;
75520;SDS011;64102;48.628;9.002;2023-05-07T10:57:46;5.25;;;0.93;;
75520;SDS011;64102;48.628;9.002;2023-05-07T11:05:29;4.88;;;1.13;;
75520;SDS011;64102;48.628;9.002;2023-05-07T11:07:56;5.50;;;0.93;;
75520;SDS011;64102;48.628;9.002;2023-05-07T11:10:23;4.57;;;1.05;;
75520;SDS011;64102;48.628;9.002;2023-05-07T11:12:49;5.13;;;1.17;;
75520;SDS011;64102;48.628;9.002;2023-05-07T11:15:16;5.22;;;0.88;;
75520;SDS011;64102;48.628;9.002;2023-05-07T11:17:59;3.75;;;0.40;;
75520;SDS011;64102;48.628;9.002;2023-05-07T11:26:02;4.38;;;0.55;;
75520;SDS011;64102;48.628;9.002;2023-05-07T11:28:29;5.28;;;0.80;;
75520;SDS011;64102;48.628;9.002;2023-05-07T11:30:56;4.25;;;0.50;;
75520;SDS011;64102;48.628;9.002;2023-05-07T11:33:22;5.82;;;0.40;;
75520;SDS011;64102;48.628;9.002;2023-05-07T11:35:48;5.20;;;0.55;;
75520;SDS011;64102;48.628;9.002;2023-05-07T11:38:14;4.93;;;0.55;;
75520;SDS011;64102;48.628;9.002;2023-05-07T11:40:49;4.80;;;0.82;;
75520;SDS011;64102;48.628;9.002;2023-05-07T11:43:15;4.40;;;0.70;;
75520;SDS011;64102;48.628;9.002;2023-05-07T11:45:40;4.78;;;0.43;;
75520;SDS011;64102;48.628;9.002;2023-05-07T11:48:06;4.60;;;0.50;;
75520;SDS011;64102;48.628;9.002;2023-05-07T11:50:31;5.28;;;0.52;;
75520;SDS011;64102;48.628;9.002;2023-05-07T11:52:57;5.90;;;0.70;;
75520;SDS011;64102;48.628;9.002;2023-05-07T11:55:23;5.97;;;0.53;;
75520;SDS011;64102;48.628;9.002;2023-05-07T11:57:49;4.97;;;0.70;;
75520;SDS011;64102;48.628;9.002;2023-05-07T12:00:15;5.70;;;0.63;;
75520;SDS011;64102;48.628;9.002;2023-05-07T12:02:41;4.22;;;0.50;;
75520;SDS011;64102;48.628;9.002;2023-05-07T12:05:07;5.47;;;0.50;;
75520;SDS011;64102;48.628;9.002;2023-05-07T12:07:33;5.90;;;0.63;;
75520;SDS011;64102;48.628;9.002;2023-05-07T12:09:59;4.82;;;0.60;;
75520;SDS011;64102;48.628;9.002;2023-05-07T12:12:24;6.80;;;1.07;;
75520;SDS011;64102;48.628;9.002;2023-05-07T12:14:51;6.40;;;1.17;;
75520;SDS011;64102;48.628;9.002;2023-05-07T12:17:17;6.27;;;0.93;;
75520;SDS011;64102;48.628;9.002;2023-05-07T12:19:43;7.80;;;0.85;;
75520;SDS011;64102;48.628;9.002;2023-05-07T12:22:10;5.88;;;0.50;;
75520;SDS011;64102;48.628;9.002;2023-05-07T12:24:45;12.50;;;1.30;;
75520;SDS011;64102;48.628;9.002;2023-05-07T12:27:15;9.30;;;0.82;;
75520;SDS011;64102;48.628;9.002;2023-05-07T12:29:45;7.53;;;0.40;;
75520;SDS011;64102;48.628;9.002;2023-05-07T12:32:15;5.43;;;0.45;;
75520;SDS011;64102;48.628;9.002;2023-05-07T12:34:41;6.35;;;0.32;;
75520;SDS011;64102;48.628;9.002;2023-05-07T12:37:07;2.97;;;0.20;;
75520;SDS011;64102;48.628;9.002;2023-05-07T12:39:32;7.30;;;0.50;;
75520;SDS011;64102;48.628;9.002;2023-05-07T12:41:58;7.05;;;0.40;;
75520;SDS011;64102;48.628;9.002;2023-05-07T12:44:31;5.18;;;0.50;;
75520;SDS011;64102;48.628;9.002;2023-05-07T12:46:58;4.95;;;0.60;;
75520;SDS011;64102;48.628;9.002;2023-05-07T12:49:26;10.90;;;0.80;;
75520;SDS011;64102;48.628;9.002;2023-05-07T12:51:51;5.55;;;0.35;;
75520;SDS011;64102;48.628;9.002;2023-05-07T12:54:30;8.92;;;0.88;;
75520;SDS011;64102;48.628;9.002;2023-05-07T12:57:07;7.03;;;0.95;;
75520;SDS011;64102;48.628;9.002;2023-05-07T12:59:34;8.63;;;0.93;;
75520;SDS011;64102;48.628;9.002;2023-05-07T13:02:01;5.85;;;0.50;;
75520;SDS011;64102;48.628;9.002;2023-05-07T13:04:26;6.13;;;0.30;;
75520;SDS011;64102;48.628;9.002;2023-05-07T13:06:52;5.55;;;0.45;;
75520;SDS011;64102;48.628;9.002;2023-05-07T13:09:17;6.35;;;0.45;;
75520;SDS011;64102;48.628;9.002;2023-05-07T13:11:43;5.63;;;0.93;;
75520;SDS011;64102;48.628;9.002;2023-05-07T13:14:08;5.37;;;0.50;;
75520;SDS011;64102;48.628;9.002;2023-05-07T13:16:33;7.60;;;0.50;;
75520;SDS011;64102;48.628;9.002;2023-05-07T13:18:59;7.40;;;1.00;;
75520;SDS011;64102;48.628;9.002;2023-05-07T13:21:24;7.13;;;0.77;;
75520;SDS011;64102;48.628;9.002;2023-05-07T13:23:49;7.65;;;0.60;;
75520;SDS011;64102;48.628;9.002;2023-05-07T13:26:15;6.93;;;0.68;;
75520;SDS011;64102;48.628;9.002;2023-05-07T13:28:40;5.80;;;0.77;;
75520;SDS011;64102;48.628;9.002;2023-05-07T13:31:06;6.53;;;0.63;;
75520;SDS011;64102;48.628;9.002;2023-05-07T13:33:32;6.30;;;0.80;;
75520;SDS011;64102;48.628;9.002;2023-05-07T13:35:57;8.57;;;1.33;;
75520;SDS011;64102;48.628;9.002;2023-05-07T13:38:23;7.30;;;0.80;;
75520;SDS011;64102;48.628;9.002;2023-05-07T13:40:48;5.83;;;0.70;;
75520;SDS011;64102;48.628;9.002;2023-05-07T13:43:13;5.63;;;0.70;;
75520;SDS011;64102;48.628;9.002;2023-05-07T13:45:39;6.45;;;0.50;;
75520;SDS011;64102;48.628;9.002;2023-05-07T13:48:05;5.57;;;0.50;;
75520;SDS011;64102;48.628;9.002;2023-05-07T13:50:30;7.72;;;1.00;;
75520;SDS011;64102;48.628;9.002;2023-05-07T13:52:56;7.88;;;1.02;;
75520;SDS011;64102;48.628;9.002;2023-05-07T13:55:21;7.15;;;0.75;;
75520;SDS011;64102;48.628;9.002;2023-05-07T13:57:48;7.40;;;0.65;;
75520;SDS011;64102;48.628;9.002;2023-05-07T14:00:20;6.63;;;0.80;;
75520;SDS011;64102;48.628;9.002;2023-05-07T14:02:45;6.90;;;1.20;;
75520;SDS011;64102;48.628;9.002;2023-05-07T14:05:11;8.30;;;1.13;;
75520;SDS011;64102;48.628;9.002;2023-05-07T14:07:38;8.07;;;0.90;;
75520;SDS011;64102;48.628;9.002;2023-05-07T14:10:03;7.68;;;0.98;;
75520;SDS011;64102;48.628;9.002;2023-05-07T14:12:29;5.25;;;0.50;;
75520;SDS011;64102;48.628;9.002;2023-05-07T14:14:55;6.10;;;0.60;;
75520;SDS011;64102;48.628;9.002;2023-05-07T14:17:21;5.97;;;0.55;;
75520;SDS011;64102;48.628;9.002;2023-05-07T14:19:48;6.60;;;0.50;;
75520;SDS011;64102;48.628;9.002;2023-05-07T14:22:13;5.95;;;0.70;;
75520;SDS011;64102;48.628;9.002;2023-05-07T14:24:40;6.80;;;0.68;;
75520;SDS011;64102;48.628;9.002;2023-05-07T14:27:05;7.85;;;1.00;;
75520;SDS011;64102;48.628;9.002;2023-05-07T14:29:31;13.77;;;1.50;;
75520;SDS011;64102;48.628;9.002;2023-05-07T14:31:56;8.67;;;1.33;;
75520;SDS011;64102;48.628;9.002;2023-05-07T14:34:22;6.63;;;0.77;;
75520;SDS011;64102;48.628;9.002;2023-05-07T14:36:47;9.20;;;1.17;;
75520;SDS011;64102;48.628;9.002;2023-05-07T14:39:12;6.47;;;0.70;;
75520;SDS011;64102;48.628;9.002;2023-05-07T14:41:38;5.83;;;0.80;;
75520;SDS011;64102;48.628;9.002;2023-05-07T14:44:03;6.60;;;0.73;;
75520;SDS011;64102;48.628;9.002;2023-05-07T14:46:29;6.80;;;1.23;;
75520;SDS011;64102;48.628;9.002;2023-05-07T14:48:54;7.07;;;1.10;;
75520;SDS011;64102;48.628;9.002;2023-05-07T14:51:21;8.10;;;1.00;;
75520;SDS011;64102;48.628;9.002;2023-05-07T14:53:46;6.57;;;0.80;;
75520;SDS011;64102;48.628;9.002;2023-05-07T14:56:11;7.63;;;1.23;;
75520;SDS011;64102;48.628;9.002;2023-05-07T14:58:37;8.07;;;0.88;;
75520;SDS011;64102;48.628;9.002;2023-05-07T15:01:03;7.10;;;0.95;;
75520;SDS011;64102;48.628;9.002;2023-05-07T15:03:28;8.80;;;0.80;;
75520;SDS011;64102;48.628;9.002;2023-05-07T15:05:54;7.05;;;1.23;;
75520;SDS011;64102;48.628;9.002;2023-05-07T15:08:20;8.05;;;1.52;;
75520;SDS011;64102;48.628;9.002;2023-05-07T15:10:45;7.88;;;1.23;;
75520;SDS011;64102;48.628;9.002;2023-05-07T15:13:11;9.02;;;1.80;;
75520;SDS011;64102;48.628;9.002;2023-05-07T15:15:38;7.40;;;1.40;;